createdAt,value
2018-09-25T00:02:26.634Z,18.50
2018-09-25T00:05:01.481Z,18.49
2018-09-25T00:07:36.276Z,18.48
2018-09-25T00:10:11.440Z,18.47
2018-09-25T00:12:46.231Z,18.47
2018-09-25T00:15:20.897Z,18.44
2018-09-25T00:17:56.222Z,18.43
2018-09-25T00:20:31.251Z,18.44
2018-09-25T00:23:06.309Z,18.42
2018-09-25T00:25:40.985Z,18.40
2018-09-25T00:28:15.739Z,18.39
2018-09-25T00:30:52.224Z,18.36
2018-09-25T00:33:27.357Z,18.36
2018-09-25T00:36:02.873Z,18.34
2018-09-25T00:38:37.398Z,18.33
2018-09-25T00:41:12.106Z,18.32
2018-09-25T00:43:47.059Z,18.31
2018-09-25T00:46:22.101Z,18.31
2018-09-25T00:48:56.749Z,18.30
2018-09-25T00:51:31.671Z,18.28
2018-09-25T00:54:06.321Z,18.28
2018-09-25T00:56:40.953Z,18.26
2018-09-25T00:59:15.485Z,18.26
2018-09-25T01:01:50.374Z,18.23
2018-09-25T01:04:25.282Z,18.21
2018-09-25T01:06:59.959Z,18.20
2018-09-25T01:09:35.146Z,18.21
2018-09-25T01:12:09.817Z,18.20
2018-09-25T01:14:44.543Z,18.17
2018-09-25T01:17:19.998Z,18.17
2018-09-25T01:19:55.125Z,18.16
2018-09-25T01:22:30.355Z,18.16
2018-09-25T01:25:05.245Z,18.14
2018-09-25T01:27:40.235Z,18.12
2018-09-25T01:30:15.331Z,18.11
2018-09-25T01:32:49.922Z,18.10
2018-09-25T01:35:24.882Z,18.10
2018-09-25T01:37:59.465Z,18.08
2018-09-25T01:40:34.437Z,18.06
2018-09-25T01:43:09.758Z,18.06
2018-09-25T01:45:44.518Z,18.05
2018-09-25T01:48:19.462Z,18.05
2018-09-25T01:50:54.158Z,18.03
2018-09-25T01:53:28.966Z,18.03
2018-09-25T01:56:03.656Z,18.01
2018-09-25T01:58:38.902Z,18.01
2018-09-25T02:01:13.466Z,18.01
2018-09-25T02:03:48.390Z,18.00
2018-09-25T02:06:23.493Z,17.97
2018-09-25T02:08:58.442Z,17.98
2018-09-25T02:11:33.126Z,17.97
2018-09-25T02:14:07.615Z,17.98
2018-09-25T02:16:42.430Z,17.96
2018-09-25T02:19:17.074Z,17.94
2018-09-25T02:21:52.255Z,17.94
2018-09-25T02:24:26.881Z,17.94
2018-09-25T02:27:03.044Z,17.90
2018-09-25T02:29:38.338Z,17.92
2018-09-25T02:32:13.979Z,17.90
2018-09-25T02:34:48.609Z,17.90
2018-09-25T02:37:24.579Z,17.89
2018-09-25T02:39:59.187Z,17.88
2018-09-25T02:42:33.997Z,17.86
2018-09-25T02:45:09.512Z,17.85
2018-09-25T02:47:44.970Z,17.84
2018-09-25T02:50:21.509Z,17.84
2018-09-25T02:52:56.221Z,17.83
2018-09-25T02:55:32.156Z,17.82
2018-09-25T02:58:08.245Z,17.81
2018-09-25T03:00:43.021Z,17.82
2018-09-25T03:03:17.707Z,17.81
2018-09-25T03:05:52.662Z,17.80
2018-09-25T03:08:28.215Z,17.79
2018-09-25T03:11:03.229Z,17.76
2018-09-25T03:13:37.900Z,17.78
2018-09-25T03:16:13.285Z,17.78
2018-09-25T03:18:49.447Z,17.77
2018-09-25T03:21:23.977Z,17.75
2018-09-25T03:23:58.912Z,17.75
2018-09-25T03:26:35.230Z,17.73
2018-09-25T03:29:11.216Z,17.71
2018-09-25T03:31:46.285Z,17.73
2018-09-25T03:34:21.646Z,17.71
2018-09-25T03:36:56.508Z,17.69
2018-09-25T03:39:31.264Z,17.68
2018-09-25T03:42:06.798Z,17.68
2018-09-25T03:44:42.891Z,17.68
2018-09-25T03:47:18.172Z,17.66
2018-09-25T03:49:52.842Z,17.68
2018-09-25T03:52:27.634Z,17.66
2018-09-25T03:55:02.206Z,17.65
2018-09-25T03:57:37.070Z,17.64
2018-09-25T04:00:13.945Z,17.64
2018-09-25T04:02:48.618Z,17.63
2018-09-25T04:05:23.717Z,17.59
2018-09-25T04:07:59.770Z,17.61
2018-09-25T04:10:34.261Z,17.61
2018-09-25T04:13:10.630Z,17.58
2018-09-25T04:15:46.668Z,17.56
2018-09-25T04:18:21.542Z,17.54
2018-09-25T04:21:00.476Z,17.53
2018-09-25T04:23:37.767Z,17.53
2018-09-25T04:26:14.023Z,17.50
2018-09-25T04:28:48.826Z,17.49
2018-09-25T04:31:23.892Z,17.48
2018-09-25T04:33:58.887Z,17.45
2018-09-25T04:36:33.736Z,17.44
2018-09-25T04:39:09.007Z,17.46
2018-09-25T04:41:43.999Z,17.46
2018-09-25T04:44:19.529Z,17.49
2018-09-25T04:49:28.277Z,17.43
2018-09-25T04:52:02.986Z,17.44
2018-09-25T04:54:37.978Z,17.57
2018-09-25T04:57:14.613Z,17.58
2018-09-25T04:59:49.363Z,17.65
2018-09-25T05:02:25.403Z,17.68
2018-09-25T05:05:00.678Z,17.73
2018-09-25T05:07:45.244Z,17.77
2018-09-25T05:10:25.772Z,17.87
2018-09-25T05:13:03.207Z,17.87
2018-09-25T05:15:38.041Z,17.93
2018-09-25T05:18:13.537Z,17.98
2018-09-25T05:20:49.719Z,18.03
2018-09-25T05:23:24.239Z,18.03
2018-09-25T05:26:00.277Z,18.06
2018-09-25T05:28:35.466Z,18.12
2018-09-25T05:31:10.973Z,18.14
2018-09-25T05:33:45.633Z,18.12
2018-09-25T05:36:21.683Z,18.19
2018-09-25T05:38:56.580Z,18.23
2018-09-25T05:41:31.493Z,18.29
2018-09-25T05:44:06.396Z,18.27
2018-09-25T05:46:40.848Z,18.31
2018-09-25T05:49:17.303Z,18.36
2018-09-25T05:51:53.114Z,18.37
2018-09-25T05:54:29.619Z,18.42
2018-09-25T05:57:04.385Z,18.46
2018-09-25T05:59:39.704Z,18.50
2018-09-25T06:02:17.878Z,18.50
2018-09-25T06:04:53.874Z,18.54
2018-09-25T06:07:30.255Z,18.59
2018-09-25T06:10:07.830Z,18.61
2018-09-25T06:12:45.987Z,18.60
2018-09-25T06:15:20.868Z,18.74
2018-09-25T06:17:55.433Z,18.79
2018-09-25T06:20:30.875Z,18.74
2018-09-25T06:23:06.832Z,18.73
2018-09-25T06:25:48.232Z,18.79
2018-09-25T06:28:24.296Z,18.83
2018-09-25T06:30:59.018Z,18.81
2018-09-25T06:33:34.731Z,18.86
2018-09-25T06:36:09.447Z,18.86
2018-09-25T06:38:45.276Z,18.90
2018-09-25T06:41:22.211Z,18.91
2018-09-25T06:43:57.172Z,18.92
2018-09-25T06:46:32.012Z,18.95
2018-09-25T06:49:07.902Z,18.96
2018-09-25T06:51:42.436Z,18.98
2018-09-25T06:54:17.567Z,18.99
2018-09-25T06:56:52.545Z,19.02
2018-09-25T06:59:27.047Z,19.05
2018-09-25T07:02:02.187Z,19.04
2018-09-25T07:04:37.978Z,19.09
2018-09-25T07:07:14.666Z,19.10
2018-09-25T07:09:49.818Z,19.10
2018-09-25T07:12:25.693Z,19.12
2018-09-25T07:15:02.314Z,19.18
2018-09-25T07:17:37.246Z,19.16
2018-09-25T07:20:13.406Z,19.19
2018-09-25T07:22:49.306Z,19.23
2018-09-25T07:25:25.220Z,19.32
2018-09-25T07:28:00.182Z,19.32
2018-09-25T07:30:35.699Z,19.32
2018-09-25T07:33:10.241Z,19.37
2018-09-25T07:35:44.901Z,19.38
2018-09-25T07:38:21.549Z,19.41
2018-09-25T07:40:58.380Z,19.46
2018-09-25T07:43:33.031Z,19.44
2018-09-25T07:46:08.707Z,19.46
2018-09-25T07:48:44.601Z,19.48
2018-09-25T07:51:19.237Z,19.48
2018-09-25T07:53:54.709Z,19.53
2018-09-25T07:56:29.902Z,19.56
2018-09-25T07:59:05.171Z,19.62
2018-09-25T08:01:40.521Z,19.63
2018-09-25T08:04:15.182Z,19.66
2018-09-25T08:06:50.019Z,19.64
2018-09-25T08:09:25.252Z,19.58
2018-09-25T08:12:01.258Z,19.61
2018-09-25T08:14:39.094Z,19.61
2018-09-25T08:17:14.598Z,19.60
2018-09-25T08:19:49.166Z,19.62
2018-09-25T08:22:23.795Z,19.62
2018-09-25T08:25:01.079Z,19.62
2018-09-25T08:27:36.851Z,19.62
2018-09-25T08:30:12.424Z,19.63
2018-09-25T08:32:48.373Z,19.64
2018-09-25T08:35:23.480Z,19.64
2018-09-25T08:37:58.208Z,19.65
2018-09-25T08:40:34.715Z,19.66
2018-09-25T08:43:10.206Z,19.68
2018-09-25T08:45:45.061Z,19.68
2018-09-25T08:48:23.042Z,19.70
2018-09-25T08:50:58.096Z,19.70
2018-09-25T08:53:32.810Z,19.72
2018-09-25T08:56:08.991Z,19.72
2018-09-25T08:58:46.479Z,19.74
2018-09-25T09:01:22.101Z,19.73
2018-09-25T09:03:57.166Z,19.74
2018-09-25T09:06:32.224Z,19.78
2018-09-25T09:09:07.434Z,19.87
2018-09-25T09:11:43.232Z,19.97
2018-09-25T09:14:19.767Z,20.05
2018-09-25T09:16:55.087Z,20.11
2018-09-25T09:19:29.799Z,20.16
2018-09-25T09:22:05.080Z,20.20
2018-09-25T09:24:40.186Z,20.22
2018-09-25T09:27:15.095Z,20.26
2018-09-25T09:29:50.393Z,20.27
2018-09-25T09:32:25.916Z,20.33
2018-09-25T09:35:02.715Z,20.37
2018-09-25T09:37:38.248Z,20.40
2018-09-25T09:40:13.162Z,20.44
2018-09-25T09:42:49.266Z,20.48
2018-09-25T09:51:19.205Z,20.49
2018-09-25T09:53:53.770Z,20.47
2018-09-25T09:56:29.219Z,20.51
2018-09-25T09:59:04.076Z,20.57
2018-09-25T10:01:52.016Z,20.61
2018-09-25T10:04:27.125Z,20.63
2018-09-25T10:07:02.422Z,20.65
2018-09-25T10:09:37.205Z,20.67
2018-09-25T10:12:12.872Z,20.70
2018-09-25T10:14:49.746Z,20.72
2018-09-25T10:17:25.641Z,20.71
2018-09-25T10:20:00.492Z,20.76
2018-09-25T10:22:36.078Z,20.77
2018-09-25T10:25:10.865Z,20.79
2018-09-25T10:27:45.782Z,20.85
2018-09-25T10:30:20.660Z,20.88
2018-09-25T10:32:55.357Z,20.89
2018-09-25T10:35:30.170Z,20.93
2018-09-25T10:38:05.334Z,20.98
2018-09-25T10:40:40.468Z,20.98
2018-09-25T10:43:15.298Z,21.06
2018-09-25T10:45:50.004Z,21.06
2018-09-25T10:48:25.021Z,21.11
2018-09-25T10:50:59.775Z,21.12
2018-09-25T10:53:34.404Z,21.15
2018-09-25T10:56:10.000Z,21.26
2018-09-25T10:58:45.741Z,21.35
2018-09-25T11:01:20.492Z,21.38
2018-09-25T11:03:56.570Z,21.44
2018-09-25T11:06:31.407Z,21.47
2018-09-25T11:09:06.340Z,21.54
2018-09-25T11:11:42.549Z,21.56
2018-09-25T11:14:17.432Z,21.60
2018-09-25T11:16:52.916Z,21.68
2018-09-25T11:19:28.194Z,21.65
2018-09-25T11:24:39.727Z,21.68
2018-09-25T11:27:14.408Z,21.67
2018-09-25T11:29:50.551Z,21.68
2018-09-25T11:32:25.190Z,21.69
2018-09-25T11:34:59.821Z,21.69
2018-09-25T11:37:34.523Z,21.70
2018-09-25T11:40:12.627Z,21.71
2018-09-25T11:42:47.553Z,21.71
2018-09-25T11:45:23.381Z,21.71
2018-09-25T11:47:58.289Z,21.72
2018-09-25T11:50:34.833Z,21.72
2018-09-25T11:53:10.269Z,21.75
2018-09-25T11:55:45.291Z,21.78
2018-09-25T11:58:20.415Z,21.76
2018-09-25T12:00:55.219Z,21.77
2018-09-25T12:03:30.766Z,21.77
2018-09-25T12:06:05.454Z,21.78
2018-09-25T12:08:40.470Z,21.77
2018-09-25T12:11:15.613Z,21.77
2018-09-25T12:13:51.270Z,21.75
2018-09-25T12:16:26.970Z,21.75
2018-09-25T12:19:01.947Z,21.74
2018-09-25T12:21:37.185Z,21.73
2018-09-25T12:24:13.696Z,21.72
2018-09-25T12:26:48.684Z,21.70
2018-09-25T12:29:24.084Z,21.66
2018-09-25T12:31:59.408Z,21.67
2018-09-25T12:34:34.107Z,21.67
2018-09-25T12:37:09.296Z,21.57
2018-09-25T12:39:43.813Z,21.56
2018-09-25T12:42:18.208Z,21.55
2018-09-25T12:44:53.428Z,21.54
2018-09-25T12:47:27.983Z,21.54
2018-09-25T12:50:02.913Z,21.52
2018-09-25T12:52:38.139Z,21.51
2018-09-25T12:55:13.467Z,21.46
2018-09-25T12:57:48.324Z,21.42
2018-09-25T13:00:24.205Z,21.39
2018-09-25T13:03:00.186Z,21.35
2018-09-25T13:05:35.087Z,21.31
2018-09-25T13:08:10.793Z,21.23
2018-09-25T13:10:45.463Z,21.17
2018-09-25T13:13:20.015Z,21.11
2018-09-25T13:15:54.797Z,21.03
2018-09-25T13:18:29.503Z,20.93
2018-09-25T13:21:04.777Z,20.92
2018-09-25T13:23:39.269Z,20.83
2018-09-25T13:26:13.914Z,20.88
2018-09-25T13:29:03.894Z,20.84
2018-09-25T13:31:40.247Z,20.76
2018-09-25T13:34:14.952Z,20.75
2018-09-25T13:37:00.376Z,20.65
2018-09-25T13:39:36.996Z,20.63
2018-09-25T13:42:12.728Z,20.59
2018-09-25T13:44:47.578Z,20.56
2018-09-25T13:47:23.911Z,20.52
2018-09-25T13:49:59.274Z,20.48
2018-09-25T13:52:37.259Z,20.44
2018-09-25T13:58:08.104Z,20.35
2018-09-25T14:00:42.601Z,20.33
2018-09-25T14:05:54.069Z,20.26
2018-09-25T14:08:28.874Z,20.24
2018-09-25T14:11:03.868Z,20.21
2018-09-25T14:13:39.963Z,20.21
2018-09-25T14:16:15.884Z,20.21
2018-09-25T14:18:50.833Z,20.22
2018-09-25T14:21:26.107Z,20.22
2018-09-25T14:24:00.983Z,20.23
2018-09-25T14:26:35.712Z,20.22
2018-09-25T14:29:10.310Z,20.21
2018-09-25T14:31:45.387Z,20.20
2018-09-25T14:34:20.297Z,20.22
2018-09-25T14:36:57.677Z,20.23
2018-09-25T14:39:32.350Z,20.24
2018-09-25T14:42:06.895Z,20.26
2018-09-25T14:44:41.441Z,20.28
2018-09-25T14:47:16.278Z,20.27
2018-09-25T14:49:51.351Z,20.30
2018-09-25T14:52:25.927Z,20.31
2018-09-25T14:55:00.939Z,20.31
2018-09-25T14:57:36.211Z,20.32
2018-09-25T15:00:11.646Z,20.33
2018-09-25T15:02:46.650Z,20.34
2018-09-25T15:05:21.332Z,20.33
2018-09-25T15:07:56.552Z,20.35
2018-09-25T15:10:31.367Z,20.36
2018-09-25T15:13:08.180Z,20.34
2018-09-25T15:15:43.281Z,20.33
2018-09-25T15:18:17.969Z,20.31
2018-09-25T15:20:53.319Z,20.31
2018-09-25T15:23:27.764Z,20.31
2018-09-25T15:26:03.200Z,20.29
2018-09-25T15:28:38.564Z,20.29
2018-09-25T15:31:13.855Z,20.27
2018-09-25T15:33:49.228Z,20.26
2018-09-25T15:36:25.030Z,20.24
2018-09-25T15:39:00.542Z,20.22
2018-09-25T15:41:37.161Z,20.04
2018-09-25T15:44:12.277Z,20.11
2018-09-25T15:46:48.412Z,20.15
2018-09-25T15:49:23.063Z,20.15
2018-09-25T15:51:58.230Z,20.15
2018-09-25T15:54:32.827Z,20.15
2018-09-25T15:57:07.950Z,20.18
2018-09-25T15:59:42.802Z,20.21
2018-09-25T16:02:18.829Z,20.26
2018-09-25T16:04:55.095Z,20.31
2018-09-25T16:07:29.553Z,20.35
2018-09-25T16:10:04.332Z,20.37
2018-09-25T16:12:38.960Z,20.39
2018-09-25T16:15:13.794Z,20.40
2018-09-25T16:17:48.698Z,20.41
2018-09-25T16:20:23.505Z,20.43
2018-09-25T16:22:58.324Z,20.44
2018-09-25T16:25:33.608Z,20.46
2018-09-25T16:28:08.138Z,20.48
2018-09-25T16:33:16.649Z,20.29
2018-09-25T16:35:51.668Z,20.28
2018-09-25T16:38:26.786Z,20.27
2018-09-25T16:41:01.844Z,20.25
2018-09-25T16:43:36.286Z,20.22
2018-09-25T16:46:10.832Z,20.22
2018-09-25T16:48:46.104Z,20.22
2018-09-25T16:51:20.819Z,20.17
2018-09-25T16:53:55.751Z,20.17
2018-09-25T16:56:30.348Z,20.16
2018-09-25T16:59:05.277Z,20.15
2018-09-25T17:01:40.069Z,20.12
2018-09-25T17:04:14.751Z,20.11
2018-09-25T17:06:49.468Z,20.10
2018-09-25T17:09:24.263Z,20.08
2018-09-25T17:11:59.196Z,20.06
2018-09-25T17:14:34.300Z,20.07
2018-09-25T17:17:09.047Z,20.07
2018-09-25T17:19:44.276Z,20.07
2018-09-25T17:22:19.096Z,20.08
2018-09-25T17:24:54.124Z,20.13
2018-09-25T17:27:29.196Z,20.13
2018-09-25T17:30:04.349Z,20.16
2018-09-25T17:32:40.302Z,20.16
2018-09-25T17:35:15.098Z,20.16
2018-09-25T17:37:51.518Z,20.16
2018-09-25T17:40:26.726Z,20.15
2018-09-25T17:43:01.182Z,20.13
2018-09-25T17:45:36.233Z,20.15
2018-09-25T17:48:10.847Z,20.18
2018-09-25T17:50:45.695Z,20.21
2018-09-25T17:53:20.468Z,20.22
2018-09-25T17:55:55.350Z,20.22
2018-09-25T18:01:35.532Z,20.22
2018-09-25T18:04:10.267Z,20.21
2018-09-25T18:06:44.929Z,20.21
2018-09-25T18:09:19.611Z,20.22
2018-09-25T18:11:54.243Z,20.21
2018-09-25T18:14:29.141Z,20.18
2018-09-25T18:17:04.184Z,20.23
2018-09-25T18:19:38.862Z,20.24
2018-09-25T18:22:14.188Z,20.25
2018-09-25T18:24:49.696Z,20.23
2018-09-25T18:27:24.445Z,20.25
2018-09-25T18:30:00.406Z,20.25
2018-09-25T18:32:35.171Z,20.25
2018-09-25T18:35:10.046Z,20.26
2018-09-25T18:37:45.084Z,20.25
2018-09-25T18:40:20.412Z,20.26
2018-09-25T18:42:55.437Z,20.28
2018-09-25T18:45:30.299Z,20.27
2018-09-25T18:48:05.325Z,20.27
2018-09-25T18:50:40.335Z,20.26
2018-09-25T18:53:15.544Z,20.26
2018-09-25T18:55:50.266Z,20.26
2018-09-25T18:58:25.143Z,20.25
2018-09-25T19:01:00.086Z,20.28
2018-09-25T19:03:34.699Z,20.29
2018-09-25T19:06:11.754Z,20.30
2018-09-25T19:08:49.208Z,20.31
2018-09-25T19:11:24.520Z,20.30
2018-09-25T19:13:59.218Z,20.30
2018-09-25T19:16:33.986Z,20.29
2018-09-25T19:19:09.080Z,20.30
2018-09-25T19:21:44.485Z,20.29
2018-09-25T19:24:20.129Z,20.28
2018-09-25T19:26:55.153Z,20.27
2018-09-25T19:29:30.404Z,20.28
2018-09-25T19:32:11.860Z,20.28
2018-09-25T19:34:47.542Z,20.32
2018-09-25T19:37:22.893Z,20.33
2018-09-25T19:39:58.331Z,20.32
2018-09-25T19:42:34.056Z,20.33
2018-09-25T19:45:10.340Z,20.36
2018-09-25T19:47:44.860Z,20.34
2018-09-25T19:50:20.541Z,20.34
2018-09-25T19:52:55.387Z,20.35
2018-09-25T19:55:30.287Z,20.33
2018-09-25T19:58:06.244Z,20.30
2018-09-25T20:00:41.750Z,20.32
2018-09-25T20:03:16.362Z,20.33
2018-09-25T20:05:51.147Z,20.38
2018-09-25T20:08:26.758Z,20.38
2018-09-25T20:11:01.828Z,20.38
2018-09-25T20:13:38.392Z,20.35
2018-09-25T20:16:14.059Z,20.36
2018-09-25T20:18:49.128Z,20.42
2018-09-25T20:21:24.186Z,20.48
2018-09-25T20:23:59.100Z,20.51
2018-09-25T20:26:34.379Z,20.57
2018-09-25T20:29:10.304Z,20.57
2018-09-25T20:31:46.106Z,20.62
2018-09-25T20:34:21.065Z,20.63
2018-09-25T20:36:56.559Z,20.65
2018-09-25T20:39:31.223Z,20.65
2018-09-25T20:42:06.592Z,20.66
2018-09-25T20:44:41.467Z,20.67
2018-09-25T20:47:16.445Z,20.66
2018-09-25T20:49:51.456Z,20.67
2018-09-25T20:52:26.003Z,20.66
2018-09-25T20:55:01.213Z,20.67
2018-09-25T20:57:36.171Z,20.68
2018-09-25T21:00:11.525Z,20.66
2018-09-25T21:02:46.968Z,20.66
2018-09-25T21:05:21.786Z,20.65
2018-09-25T21:07:56.279Z,20.65
2018-09-25T21:10:31.674Z,20.66
2018-09-25T21:13:06.531Z,20.65
2018-09-25T21:15:41.204Z,20.63
2018-09-25T21:18:17.043Z,20.57
2018-09-25T21:20:52.247Z,20.56
2018-09-25T21:23:28.099Z,20.55
2018-09-25T21:26:03.191Z,20.57
2018-09-25T21:28:37.906Z,20.57
2018-09-25T21:31:12.868Z,20.59
2018-09-25T21:33:47.364Z,20.58
2018-09-25T21:36:22.351Z,20.49
2018-09-25T21:38:57.509Z,20.43
2018-09-25T21:41:32.095Z,20.41
2018-09-25T21:44:07.289Z,20.40
2018-09-25T21:46:42.032Z,20.41
2018-09-25T21:49:16.575Z,20.40
2018-09-25T21:51:51.754Z,20.40
2018-09-25T21:54:26.115Z,20.38
2018-09-25T21:57:01.777Z,20.34
2018-09-25T21:59:36.351Z,20.29
2018-09-25T22:02:11.384Z,20.29
2018-09-25T22:04:46.199Z,20.28
2018-09-25T22:07:21.318Z,20.25
2018-09-25T22:09:56.310Z,20.24
2018-09-25T22:12:31.149Z,20.23
2018-09-25T22:15:06.082Z,20.22
2018-09-25T22:17:40.752Z,20.21
2018-09-25T22:20:15.596Z,20.20
2018-09-25T22:22:50.203Z,20.16
2018-09-25T22:25:25.358Z,20.13
2018-09-25T22:27:59.865Z,20.14
2018-09-25T22:30:34.492Z,20.11
2018-09-25T22:33:09.431Z,20.10
2018-09-25T22:35:44.124Z,20.08
2018-09-25T22:38:18.973Z,20.05
2018-09-25T22:40:53.779Z,20.04
2018-09-25T22:43:28.344Z,20.03
2018-09-25T22:46:03.049Z,20.01
2018-09-25T22:48:37.740Z,19.99
2018-09-25T22:51:12.693Z,19.98
2018-09-25T22:53:47.372Z,19.96
2018-09-25T22:56:21.989Z,19.93
2018-09-25T22:58:56.842Z,19.92
2018-09-25T23:01:31.724Z,19.89
2018-09-25T23:04:06.631Z,19.86
2018-09-25T23:06:41.303Z,19.85
2018-09-25T23:09:15.832Z,19.85
2018-09-25T23:11:50.715Z,19.84
2018-09-25T23:14:25.403Z,19.80
2018-09-25T23:17:00.180Z,19.78
2018-09-25T23:19:35.392Z,19.77
2018-09-25T23:22:10.296Z,19.75
2018-09-25T23:24:45.454Z,19.73
2018-09-25T23:27:19.957Z,19.71
2018-09-25T23:29:54.493Z,19.69
2018-09-25T23:32:29.276Z,19.68
2018-09-25T23:35:04.143Z,19.67
2018-09-25T23:37:38.859Z,19.65
2018-09-25T23:41:18.524Z,19.64
2018-09-25T23:43:55.928Z,19.61
2018-09-25T23:46:45.369Z,19.57
2018-09-25T23:49:26.652Z,19.58
2018-09-25T23:52:01.959Z,19.56
2018-09-25T23:54:37.483Z,19.57
2018-09-25T23:57:15.805Z,19.54
2018-09-25T23:59:57.489Z,19.52
